createdAt,value
2018-05-21T00:00:44.459Z,41.61
2018-05-21T00:03:10.771Z,41.45
2018-05-21T00:05:37.297Z,41.07
2018-05-21T00:08:03.684Z,41.02
2018-05-21T00:10:30.072Z,42.29
2018-05-21T00:12:56.436Z,42.23
2018-05-21T00:15:22.820Z,41.97
2018-05-21T00:17:49.207Z,41.86
2018-05-21T00:20:15.672Z,41.02
2018-05-21T00:22:42.769Z,41.40
2018-05-21T00:25:09.134Z,41.76
2018-05-21T00:27:35.529Z,41.60
2018-05-21T00:30:01.902Z,41.51
2018-05-21T00:32:29.102Z,41.78
2018-05-21T00:34:55.554Z,41.86
2018-05-21T00:37:21.938Z,42.41
2018-05-21T00:39:48.373Z,42.80
2018-05-21T00:42:14.762Z,42.73
2018-05-21T00:44:41.074Z,42.98
2018-05-21T00:47:07.564Z,42.53
2018-05-21T00:49:33.950Z,42.60
2018-05-21T00:52:01.107Z,42.55
2018-05-21T00:54:27.445Z,42.65
2018-05-21T00:56:53.950Z,42.74
2018-05-21T00:59:20.472Z,42.59
2018-05-21T01:01:46.895Z,43.80
2018-05-21T01:04:13.294Z,43.55
2018-05-21T01:06:40.393Z,43.70
2018-05-21T01:09:06.786Z,42.78
2018-05-21T01:11:33.258Z,43.92
2018-05-21T01:14:00.488Z,42.90
2018-05-21T01:16:26.866Z,44.11
2018-05-21T01:18:53.377Z,43.84
2018-05-21T01:21:19.719Z,44.07
2018-05-21T01:23:46.160Z,44.01
2018-05-21T01:26:12.564Z,44.75
2018-05-21T01:28:38.927Z,43.73
2018-05-21T01:31:06.172Z,44.46
2018-05-21T01:33:32.607Z,43.95
2018-05-21T01:35:58.937Z,44.38
2018-05-21T01:38:25.289Z,43.97
2018-05-21T01:40:52.551Z,43.89
2018-05-21T01:43:18.949Z,43.48
2018-05-21T01:45:45.534Z,43.44
2018-05-21T01:48:11.975Z,43.80
2018-05-21T01:50:38.348Z,44.63
2018-05-21T01:53:04.745Z,44.01
2018-05-21T01:55:31.113Z,44.17
2018-05-21T01:57:57.648Z,43.73
2018-05-21T02:00:24.018Z,43.60
2018-05-21T02:02:50.323Z,43.17
2018-05-21T02:05:17.514Z,43.91
2018-05-21T02:07:43.886Z,43.63
2018-05-21T02:10:11.011Z,44.04
2018-05-21T02:12:37.329Z,44.67
2018-05-21T02:15:04.615Z,44.21
2018-05-21T02:17:31.001Z,44.13
2018-05-21T02:19:57.288Z,43.80
2018-05-21T02:22:24.451Z,44.38
2018-05-21T02:24:50.935Z,44.41
2018-05-21T02:27:17.347Z,43.84
2018-05-21T02:29:43.652Z,44.52
2018-05-21T02:32:10.132Z,44.41
2018-05-21T02:34:36.541Z,44.59
2018-05-21T02:37:02.889Z,44.82
2018-05-21T02:39:29.286Z,44.31
2018-05-21T02:41:55.680Z,45.13
2018-05-21T02:44:22.763Z,45.15
2018-05-21T02:46:49.130Z,44.83
2018-05-21T02:49:15.486Z,45.16
2018-05-21T02:51:42.590Z,45.75
2018-05-21T02:54:08.981Z,46.08
2018-05-21T02:56:36.050Z,45.16
2018-05-21T02:59:02.377Z,44.69
2018-05-21T03:01:28.690Z,44.98
2018-05-21T03:03:55.818Z,45.65
2018-05-21T03:06:22.904Z,46.05
2018-05-21T03:08:49.302Z,46.26
2018-05-21T03:11:16.379Z,45.85
2018-05-21T03:13:42.699Z,45.79
2018-05-21T03:16:09.957Z,46.26
2018-05-21T03:18:36.376Z,46.09
2018-05-21T03:21:02.717Z,46.27
2018-05-21T03:23:29.082Z,45.86
2018-05-21T03:25:55.464Z,46.31
2018-05-21T03:28:21.790Z,46.42
2018-05-21T03:30:48.923Z,46.21
2018-05-21T03:33:16.006Z,46.50
2018-05-21T03:35:42.360Z,46.73
2018-05-21T03:38:08.679Z,47.43
2018-05-21T03:40:35.178Z,47.18
2018-05-21T03:43:01.546Z,47.18
2018-05-21T03:45:27.897Z,47.47
2018-05-21T03:47:54.222Z,47.46
2018-05-21T03:50:20.531Z,47.58
2018-05-21T03:52:46.941Z,48.34
2018-05-21T03:55:13.367Z,47.76
2018-05-21T03:57:39.696Z,47.99
2018-05-21T04:00:24.594Z,48.14
2018-05-21T04:03:09.081Z,48.13
2018-05-21T04:05:35.458Z,48.66
2018-05-21T04:08:01.948Z,48.73
2018-05-21T04:10:29.086Z,49.35
2018-05-21T04:12:56.386Z,49.14
2018-05-21T04:15:22.734Z,49.40
2018-05-21T04:17:49.045Z,49.29
2018-05-21T04:20:15.370Z,49.43
2018-05-21T04:22:41.663Z,49.75
2018-05-21T04:25:08.053Z,49.92
2018-05-21T04:27:34.373Z,50.15
2018-05-21T04:30:00.835Z,50.35
2018-05-21T04:32:27.161Z,50.46
2018-05-21T04:34:53.567Z,50.76
2018-05-21T04:37:19.975Z,50.83
2018-05-21T04:39:46.368Z,51.04
2018-05-21T04:42:12.675Z,51.47
2018-05-21T04:44:39.068Z,51.58
2018-05-21T04:47:05.473Z,52.04
2018-05-21T04:49:31.801Z,51.87
2018-05-21T04:51:58.134Z,52.30
2018-05-21T04:54:25.401Z,51.97
2018-05-21T04:56:51.733Z,52.52
2018-05-21T04:59:18.094Z,53.27
2018-05-21T05:01:44.525Z,52.76
2018-05-21T05:04:10.952Z,52.82
2018-05-21T05:06:37.296Z,53.00
2018-05-21T05:09:04.698Z,53.27
2018-05-21T05:11:31.750Z,54.04
2018-05-21T05:13:58.131Z,53.53
2018-05-21T05:16:24.529Z,54.10
2018-05-21T05:18:50.846Z,53.94
2018-05-21T05:21:19.051Z,54.39
2018-05-21T05:23:45.475Z,54.28
2018-05-21T05:26:11.822Z,54.48
2018-05-21T05:28:38.247Z,53.74
2018-05-21T05:31:04.494Z,52.47
2018-05-21T05:33:30.798Z,50.91
2018-05-21T05:35:57.252Z,49.98
2018-05-21T05:38:23.575Z,46.43
2018-05-21T05:40:50.005Z,43.38
2018-05-21T05:43:16.343Z,43.66
2018-05-21T05:45:42.748Z,43.06
2018-05-21T05:48:09.181Z,42.64
2018-05-21T05:50:35.601Z,41.03
2018-05-21T05:53:01.898Z,39.12
2018-05-21T05:55:28.275Z,38.80
2018-05-21T05:57:54.614Z,40.95
2018-05-21T06:00:22.095Z,37.84
2018-05-21T06:02:48.391Z,37.35
2018-05-21T06:05:14.743Z,38.08
2018-05-21T06:07:41.069Z,37.17
2018-05-21T06:10:07.483Z,35.73
2018-05-21T06:12:33.842Z,36.66
2018-05-21T06:15:00.226Z,37.29
2018-05-21T06:17:26.573Z,38.29
2018-05-21T06:19:53.003Z,37.88
2018-05-21T06:22:19.323Z,35.90
2018-05-21T06:24:45.668Z,36.06
2018-05-21T06:27:12.112Z,37.28
2018-05-21T06:29:38.594Z,35.99
2018-05-21T06:32:06.039Z,38.22
2018-05-21T06:34:32.465Z,40.34
2018-05-21T06:36:58.785Z,38.36
2018-05-21T06:39:25.821Z,38.88
2018-05-21T06:41:52.124Z,38.52
2018-05-21T06:44:18.458Z,40.91
2018-05-21T06:46:44.890Z,40.71
2018-05-21T06:49:11.233Z,42.01
2018-05-21T06:51:37.600Z,41.97
2018-05-21T06:54:03.934Z,40.29
2018-05-21T06:56:30.258Z,39.15
2018-05-21T06:58:56.638Z,40.85
2018-05-21T07:01:22.967Z,41.62
2018-05-21T07:03:49.290Z,43.75
2018-05-21T07:06:15.690Z,45.83
2018-05-21T07:08:42.835Z,47.02
2018-05-21T07:11:09.921Z,46.41
2018-05-21T07:13:36.288Z,46.12
2018-05-21T07:16:02.690Z,46.68
2018-05-21T07:18:29.182Z,47.77
2018-05-21T07:20:56.309Z,48.90
2018-05-21T07:23:22.662Z,51.69
2018-05-21T07:25:49.749Z,51.75
2018-05-21T07:28:16.219Z,51.73
2018-05-21T07:30:42.564Z,51.22
2018-05-21T07:33:09.701Z,51.86
2018-05-21T07:35:36.161Z,51.64
2018-05-21T07:38:02.487Z,52.50
2018-05-21T07:40:29.922Z,51.57
2018-05-21T07:42:56.312Z,53.98
2018-05-21T07:45:26.772Z,51.37
2018-05-21T07:47:53.110Z,52.08
2018-05-21T07:50:19.543Z,50.32
2018-05-21T07:52:45.932Z,50.13
2018-05-21T07:55:12.349Z,51.37
2018-05-21T07:57:38.706Z,51.82
2018-05-21T08:00:05.230Z,50.30
2018-05-21T08:02:32.483Z,51.08
2018-05-21T08:04:58.930Z,51.94
2018-05-21T08:07:25.285Z,50.14
2018-05-21T08:09:51.889Z,50.32
2018-05-21T08:12:18.254Z,51.37
2018-05-21T08:14:45.447Z,49.78
2018-05-21T08:17:11.820Z,50.47
2018-05-21T08:19:39.026Z,50.89
2018-05-21T08:22:05.506Z,50.42
2018-05-21T08:24:32.057Z,50.26
2018-05-21T08:26:58.658Z,51.05
2018-05-21T08:29:25.002Z,50.10
2018-05-21T08:31:51.422Z,51.91
2018-05-21T08:34:17.790Z,50.30
2018-05-21T08:36:45.043Z,50.60
2018-05-21T08:39:12.183Z,49.58
2018-05-21T08:41:39.390Z,49.41
2018-05-21T08:44:05.875Z,49.13
2018-05-21T08:46:33.789Z,50.01
2018-05-21T08:49:01.026Z,50.22
2018-05-21T08:51:27.438Z,49.18
2018-05-21T08:53:53.857Z,49.36
2018-05-21T08:56:20.438Z,49.21
2018-05-21T08:58:46.906Z,49.66
2018-05-21T09:01:13.380Z,49.00
2018-05-21T09:03:39.864Z,49.10
2018-05-21T09:06:06.316Z,48.90
2018-05-21T09:08:33.481Z,49.16
2018-05-21T09:11:00.021Z,49.97
2018-05-21T09:13:26.541Z,50.24
2018-05-21T09:15:53.791Z,51.16
2018-05-21T09:18:20.940Z,50.54
2018-05-21T09:20:47.398Z,50.15
2018-05-21T09:23:13.863Z,48.65
2018-05-21T09:25:40.389Z,48.26
2018-05-21T09:28:07.532Z,50.40
2018-05-21T09:30:33.903Z,52.58
2018-05-21T09:33:01.170Z,50.70
2018-05-21T09:35:27.519Z,51.52
2018-05-21T09:37:53.986Z,53.37
2018-05-21T09:40:20.489Z,50.15
2018-05-21T09:42:46.922Z,49.91
2018-05-21T09:45:13.430Z,48.99
2018-05-21T09:47:40.003Z,50.02
2018-05-21T09:50:06.617Z,49.13
2018-05-21T09:52:33.020Z,49.15
2018-05-21T09:55:00.217Z,50.42
2018-05-21T09:57:26.643Z,47.98
2018-05-21T09:59:57.305Z,47.81
2018-05-21T10:02:23.726Z,47.43
2018-05-21T10:04:50.163Z,48.47
2018-05-21T10:07:16.703Z,47.27
2018-05-21T10:09:43.953Z,47.38
2018-05-21T10:12:10.423Z,46.42
2018-05-21T10:14:36.796Z,47.41
2018-05-21T10:17:03.224Z,47.73
2018-05-21T10:19:29.705Z,48.96
2018-05-21T10:21:56.803Z,49.76
2018-05-21T10:24:23.206Z,47.23
2018-05-21T10:26:49.606Z,47.78
2018-05-21T10:29:16.085Z,49.18
2018-05-21T10:31:42.963Z,47.05
2018-05-21T10:34:09.393Z,48.08
2018-05-21T10:36:35.778Z,48.60
2018-05-21T10:39:02.235Z,47.41
2018-05-21T10:41:28.678Z,47.30
2018-05-21T10:43:55.255Z,47.36
2018-05-21T10:46:21.737Z,46.28
2018-05-21T10:48:48.731Z,45.53
2018-05-21T10:51:15.304Z,46.66
2018-05-21T10:53:41.709Z,46.99
2018-05-21T10:56:08.874Z,46.79
2018-05-21T10:58:35.234Z,46.40
2018-05-21T11:01:01.694Z,45.99
2018-05-21T11:03:28.193Z,45.70
2018-05-21T11:05:54.574Z,45.14
2018-05-21T11:08:21.038Z,46.04
2018-05-21T11:10:47.636Z,45.02
2018-05-21T11:13:14.039Z,44.68
2018-05-21T11:15:40.475Z,44.15
2018-05-21T11:18:07.017Z,45.17
2018-05-21T11:20:33.580Z,45.46
2018-05-21T11:23:00.134Z,45.60
2018-05-21T11:25:27.434Z,43.96
2018-05-21T11:27:54.635Z,44.87
2018-05-21T11:30:21.183Z,44.35
2018-05-21T11:32:47.655Z,44.70
2018-05-21T11:35:14.154Z,43.69
2018-05-21T11:37:40.496Z,44.09
2018-05-21T11:40:06.958Z,43.96
2018-05-21T11:42:33.347Z,43.99
2018-05-21T11:44:59.806Z,43.60
2018-05-21T11:47:26.230Z,42.71
2018-05-21T11:49:52.671Z,43.37
2018-05-21T11:52:19.113Z,44.65
2018-05-21T11:54:45.523Z,44.47
2018-05-21T11:57:11.928Z,44.40
2018-05-21T11:59:38.458Z,44.29
2018-05-21T12:02:05.026Z,45.38
2018-05-21T12:04:31.475Z,45.93
2018-05-21T12:06:57.875Z,43.98
2018-05-21T12:09:24.425Z,44.68
2018-05-21T12:11:51.167Z,44.54
2018-05-21T12:14:17.541Z,43.89
2018-05-21T12:16:44.790Z,43.98
2018-05-21T12:19:11.984Z,43.76
2018-05-21T12:21:38.459Z,43.83
2018-05-21T12:24:05.057Z,43.20
2018-05-21T12:26:31.480Z,43.61
2018-05-21T12:28:57.867Z,41.01
2018-05-21T12:31:25.037Z,42.31
2018-05-21T12:33:51.721Z,43.48
2018-05-21T12:36:18.080Z,44.25
2018-05-21T12:38:45.271Z,41.53
2018-05-21T12:41:11.765Z,44.49
2018-05-21T12:43:38.162Z,42.54
2018-05-21T12:46:04.609Z,40.54
2018-05-21T12:48:31.073Z,41.14
2018-05-21T12:50:58.223Z,42.09
2018-05-21T12:53:25.469Z,41.93
2018-05-21T12:55:52.943Z,41.78
2018-05-21T12:58:19.377Z,40.90
2018-05-21T13:00:45.777Z,41.11
2018-05-21T13:03:12.154Z,41.67
2018-05-21T13:05:38.643Z,41.27
2018-05-21T13:08:05.038Z,41.83
2018-05-21T13:10:31.435Z,41.84
2018-05-21T13:12:57.853Z,41.50
2018-05-21T13:15:25.112Z,40.78
2018-05-21T13:17:51.455Z,38.19
2018-05-21T13:20:17.944Z,40.06
2018-05-21T13:22:44.334Z,40.36
2018-05-21T13:25:10.759Z,41.60
2018-05-21T13:27:37.238Z,40.60
2018-05-21T13:30:03.751Z,39.42
2018-05-21T13:32:30.170Z,41.72
2018-05-21T13:34:56.667Z,39.72
2018-05-21T13:37:23.129Z,40.90
2018-05-21T13:39:50.414Z,41.51
2018-05-21T13:42:16.972Z,40.90
2018-05-21T13:44:44.152Z,41.41
2018-05-21T13:47:10.603Z,40.32
2018-05-21T13:49:37.075Z,40.23
2018-05-21T13:52:03.542Z,39.38
2018-05-21T13:54:30.318Z,40.40
2018-05-21T13:56:57.270Z,39.04
2018-05-21T13:59:23.779Z,40.11
2018-05-21T14:01:50.177Z,38.59
2018-05-21T14:04:17.345Z,37.75
2018-05-21T14:06:43.790Z,38.01
2018-05-21T14:09:10.341Z,39.21
2018-05-21T14:11:36.866Z,39.71
2018-05-21T14:14:03.481Z,37.34
2018-05-21T14:16:29.901Z,37.33
2018-05-21T14:18:56.445Z,39.15
2018-05-21T14:21:22.871Z,39.76
2018-05-21T14:23:50.160Z,40.07
2018-05-21T14:26:16.564Z,41.44
2018-05-21T14:28:43.047Z,42.05
2018-05-21T14:31:09.546Z,41.60
2018-05-21T14:33:36.236Z,40.57
2018-05-21T14:36:02.741Z,42.67
2018-05-21T14:38:29.398Z,40.48
2018-05-21T14:40:55.867Z,41.57
2018-05-21T14:43:22.256Z,41.31
2018-05-21T14:45:48.829Z,41.05
2018-05-21T14:48:15.250Z,41.69
2018-05-21T14:50:41.693Z,39.75
2018-05-21T14:53:08.137Z,38.26
2018-05-21T14:55:34.571Z,39.14
2018-05-21T14:58:01.302Z,41.17
2018-05-21T15:00:27.768Z,39.74
2018-05-21T15:02:54.161Z,40.17
2018-05-21T15:05:21.395Z,38.69
2018-05-21T15:07:48.730Z,39.36
2018-05-21T15:10:16.008Z,39.80
2018-05-21T15:12:42.412Z,39.03
2018-05-21T15:15:08.809Z,39.42
2018-05-21T15:17:35.242Z,39.77
2018-05-21T15:20:01.714Z,39.54
2018-05-21T15:22:28.156Z,37.83
2018-05-21T15:24:57.663Z,37.87
2018-05-21T15:27:24.848Z,36.12
2018-05-21T15:29:51.293Z,38.61
2018-05-21T15:32:18.432Z,39.17
2018-05-21T15:34:44.927Z,38.11
2018-05-21T15:37:12.076Z,35.71
2018-05-21T15:39:38.501Z,37.29
2018-05-21T15:42:05.714Z,36.98
2018-05-21T15:44:32.104Z,36.89
2018-05-21T15:46:58.466Z,38.46
2018-05-21T15:49:24.903Z,39.84
2018-05-21T15:51:51.367Z,40.28
2018-05-21T15:54:17.792Z,41.12
2018-05-21T15:56:44.206Z,40.03
2018-05-21T15:59:10.635Z,39.67
2018-05-21T16:01:37.077Z,39.23
2018-05-21T16:04:03.542Z,39.41
2018-05-21T16:06:30.740Z,39.64
2018-05-21T16:08:57.127Z,39.37
2018-05-21T16:11:23.623Z,37.90
2018-05-21T16:13:50.216Z,39.14
2018-05-21T16:16:17.528Z,38.75
2018-05-21T16:18:43.958Z,38.93
2018-05-21T16:21:10.772Z,38.60
2018-05-21T16:23:37.258Z,39.04
2018-05-21T16:26:04.455Z,39.42
2018-05-21T16:28:30.894Z,38.76
2018-05-21T16:30:57.833Z,38.57
2018-05-21T16:33:24.256Z,38.67
2018-05-21T16:35:50.689Z,38.71
2018-05-21T16:38:17.240Z,39.42
2018-05-21T16:40:44.398Z,40.69
2018-05-21T16:43:10.929Z,41.56
2018-05-21T16:45:37.346Z,42.03
2018-05-21T16:48:03.765Z,41.89
2018-05-21T16:50:30.275Z,41.50
2018-05-21T16:52:56.900Z,41.60
2018-05-21T16:55:23.363Z,41.54
2018-05-21T16:57:49.786Z,41.46
2018-05-21T17:00:16.311Z,41.88
2018-05-21T17:02:42.791Z,40.90
2018-05-21T17:05:10.150Z,41.17
2018-05-21T17:07:36.630Z,42.98
2018-05-21T17:10:03.091Z,41.83
2018-05-21T17:12:29.635Z,42.11
2018-05-21T17:14:56.004Z,43.55
2018-05-21T17:17:23.212Z,43.73
2018-05-21T17:19:49.753Z,44.67
2018-05-21T17:22:16.288Z,45.82
2018-05-21T17:24:42.732Z,46.17
2018-05-21T17:27:09.360Z,46.58
2018-05-21T17:29:35.975Z,46.98
2018-05-21T17:32:02.410Z,47.58
2018-05-21T17:34:28.893Z,48.22
2018-05-21T17:36:56.218Z,49.73
2018-05-21T17:39:22.778Z,49.80
2018-05-21T17:41:50.315Z,50.67
2018-05-21T17:44:16.944Z,50.19
2018-05-21T17:46:43.500Z,50.00
2018-05-21T17:49:10.051Z,50.05
2018-05-21T17:51:37.290Z,50.10
2018-05-21T17:54:03.758Z,50.50
2018-05-21T17:56:30.346Z,51.37
2018-05-21T17:58:56.800Z,50.79
2018-05-21T18:01:24.126Z,50.75
2018-05-21T18:03:50.597Z,50.25
2018-05-21T18:06:17.095Z,50.07
2018-05-21T18:08:43.630Z,50.85
2018-05-21T18:11:10.097Z,51.68
2018-05-21T18:13:37.285Z,52.95
2018-05-21T18:16:03.768Z,53.57
2018-05-21T18:18:31.243Z,54.69
2018-05-21T18:20:58.005Z,55.10
2018-05-21T18:23:24.708Z,55.81
2018-05-21T18:25:51.238Z,55.82
2018-05-21T18:28:18.858Z,55.51
2018-05-21T18:30:45.487Z,55.99
2018-05-21T18:33:11.875Z,56.60
2018-05-21T18:35:39.111Z,57.08
2018-05-21T18:38:05.610Z,57.38
2018-05-21T18:40:32.288Z,57.15
2018-05-21T18:42:59.605Z,57.47
2018-05-21T18:45:26.329Z,57.40
2018-05-21T18:47:52.792Z,57.51
2018-05-21T18:50:19.362Z,56.78
2018-05-21T18:52:46.544Z,55.29
2018-05-21T18:55:13.026Z,56.55
2018-05-21T18:57:40.294Z,56.00
2018-05-21T19:00:07.549Z,57.63
2018-05-21T19:02:34.161Z,57.67
2018-05-21T19:05:00.531Z,56.80
2018-05-21T19:07:27.127Z,56.94
2018-05-21T19:09:53.926Z,57.10
2018-05-21T19:12:20.507Z,56.98
2018-05-21T19:14:47.682Z,59.20
2018-05-21T19:17:14.142Z,61.20
2018-05-21T19:19:40.608Z,62.58
2018-05-21T19:22:07.140Z,61.60
2018-05-21T19:24:33.694Z,62.52
2018-05-21T19:27:00.238Z,63.37
2018-05-21T19:29:27.618Z,62.47
2018-05-21T19:31:54.057Z,62.83
2018-05-21T19:34:20.580Z,63.35
2018-05-21T19:36:47.155Z,61.97
2018-05-21T19:39:14.731Z,63.40
2018-05-21T19:41:42.126Z,64.41
2018-05-21T19:44:08.734Z,64.86
2018-05-21T19:46:35.159Z,65.49
2018-05-21T19:49:05.001Z,66.14
2018-05-21T19:51:32.094Z,65.49
2018-05-21T19:53:58.702Z,65.30
2018-05-21T19:56:25.199Z,65.52
2018-05-21T19:58:56.468Z,66.51
2018-05-21T20:01:22.896Z,66.56
2018-05-21T20:03:51.237Z,66.57
2018-05-21T20:06:19.609Z,66.68
2018-05-21T20:08:46.881Z,67.08
2018-05-21T20:11:14.170Z,66.14
2018-05-21T20:13:41.894Z,66.65
2018-05-21T20:16:09.090Z,65.88
2018-05-21T20:18:36.345Z,67.00
2018-05-21T20:21:06.999Z,67.78
2018-05-21T20:23:33.431Z,68.34
2018-05-21T20:26:06.703Z,67.94
2018-05-21T20:28:34.197Z,68.64
2018-05-21T20:31:04.876Z,68.62
2018-05-21T20:33:35.729Z,69.38
2018-05-21T20:36:03.286Z,69.15
2018-05-21T20:38:30.193Z,70.37
2018-05-21T20:40:56.667Z,70.78
2018-05-21T20:43:32.456Z,71.66
2018-05-21T20:45:59.531Z,72.01
2018-05-21T20:48:34.476Z,71.22
2018-05-21T20:51:05.080Z,71.30
2018-05-21T20:53:37.853Z,71.69
2018-05-21T20:56:05.193Z,72.32
2018-05-21T20:58:32.270Z,73.21
2018-05-21T21:00:59.211Z,73.51
2018-05-21T21:03:34.174Z,73.03
2018-05-21T21:06:00.574Z,73.50
2018-05-21T21:08:27.162Z,73.65
2018-05-21T21:10:59.001Z,74.43
2018-05-21T21:13:25.435Z,74.80
2018-05-21T21:15:51.954Z,75.50
2018-05-21T21:18:19.749Z,74.59
2018-05-21T21:20:50.150Z,74.36
2018-05-21T21:23:16.652Z,74.41
2018-05-21T21:25:47.558Z,74.18
2018-05-21T21:28:15.294Z,74.37
2018-05-21T21:30:51.183Z,72.87
2018-05-21T21:33:22.533Z,69.17
2018-05-21T21:35:50.254Z,67.14
2018-05-21T21:38:16.679Z,67.82
2018-05-21T21:40:44.334Z,72.04
2018-05-21T21:43:16.682Z,75.39
2018-05-21T21:45:44.127Z,80.61
2018-05-21T21:48:15.470Z,82.75
2018-05-21T21:50:49.374Z,84.03
2018-05-21T21:53:16.953Z,85.64
2018-05-21T21:55:45.595Z,86.01
2018-05-21T21:58:18.323Z,87.21
2018-05-21T22:00:45.394Z,87.71
2018-05-21T22:03:11.731Z,86.83
2018-05-21T22:05:38.137Z,86.02
2018-05-21T22:08:11.763Z,87.79
2018-05-21T22:10:38.295Z,88.52
2018-05-21T22:13:06.467Z,88.26
2018-05-21T22:15:33.052Z,89.60
2018-05-21T22:17:59.428Z,90.69
2018-05-21T22:20:26.180Z,90.93
2018-05-21T22:22:58.294Z,89.63
2018-05-21T22:25:33.025Z,90.57
2018-05-21T22:28:05.093Z,90.21
2018-05-21T22:30:31.475Z,88.28
2018-05-21T22:32:59.075Z,84.99
2018-05-21T22:35:27.584Z,87.21
2018-05-21T22:37:59.952Z,87.29
2018-05-21T22:40:26.414Z,87.32
2018-05-21T22:42:52.979Z,86.91
2018-05-21T22:45:21.027Z,86.13
2018-05-21T22:47:49.966Z,86.39
2018-05-21T22:50:22.499Z,86.08
2018-05-21T22:52:48.881Z,86.96
2018-05-21T22:55:15.267Z,87.34
2018-05-21T22:57:41.813Z,85.91
2018-05-21T23:00:10.619Z,85.25
2018-05-21T23:02:37.027Z,86.44
2018-05-21T23:05:04.449Z,87.97
2018-05-21T23:07:32.212Z,87.53
2018-05-21T23:09:58.635Z,87.48
2018-05-21T23:12:25.082Z,87.83
2018-05-21T23:14:57.582Z,87.63
2018-05-21T23:17:23.922Z,87.42
2018-05-21T23:19:50.992Z,86.24
2018-05-21T23:22:18.038Z,87.08
2018-05-21T23:24:46.082Z,86.66
2018-05-21T23:27:15.379Z,86.58
2018-05-21T23:29:47.044Z,87.27
2018-05-21T23:32:16.436Z,87.93
2018-05-21T23:34:43.929Z,89.17
2018-05-21T23:37:10.381Z,88.58
2018-05-21T23:39:36.706Z,87.99
2018-05-21T23:42:03.113Z,86.27
2018-05-21T23:44:33.715Z,88.24
2018-05-21T23:47:00.127Z,89.15
2018-05-21T23:49:26.515Z,87.66
2018-05-21T23:51:52.858Z,85.29
2018-05-21T23:54:20.240Z,87.23
2018-05-21T23:56:46.584Z,88.69
2018-05-21T23:59:12.894Z,88.62
